Time;durP1;ratioP1;P1;durP2;ratioP2;P2;SDS_P1;SDS_P2;PMS_P1;PMS_P2;Temp;Humidity;BMP_temperature;BMP_pressure;BME280_temperature;BME280_humidity;BME280_pressure;Samples;Min_cycle;Max_cycle;Signal;HPM_P1;HPM_P2
2023/12/03 00:00:47;;;;;;;35.65;15.73;;;;;;;-0.12;100.00;101808.81;5027345;28;20065;-70
2023/12/03 00:03:15;;;;;;;50.40;26.30;;;;;;;-0.13;100.00;101804.47;5027610;28;20100;-70
2023/12/03 00:05:42;;;;;;;37.28;14.52;;;;;;;-0.12;100.00;101814.00;5027127;28;20241;-70
2023/12/03 00:08:09;;;;;;;36.95;14.15;;;;;;;-0.13;100.00;101811.38;5035711;28;20050;-70
2023/12/03 00:10:36;;;;;;;50.97;26.10;;;;;;;-0.09;100.00;101810.59;5024477;28;20057;-70
2023/12/03 00:13:03;;;;;;;40.78;17.33;;;;;;;-0.07;100.00;101814.13;5026215;28;20629;-70
2023/12/03 00:15:30;;;;;;;35.47;15.50;;;;;;;-0.05;100.00;101815.06;5028196;28;20069;-70
2023/12/03 00:17:59;;;;;;;55.72;28.15;;;;;;;-0.04;100.00;101814.22;5027608;28;20473;-71
2023/12/03 00:20:26;;;;;;;58.35;27.98;;;;;;;-0.02;100.00;101815.16;5031819;28;20052;-70
2023/12/03 00:22:53;;;;;;;62.40;30.00;;;;;;;-0.03;100.00;101810.81;5049060;28;20107;-70
2023/12/03 00:25:20;;;;;;;44.97;17.30;;;;;;;-0.04;100.00;101803.84;5026668;28;20052;-71
2023/12/03 00:27:48;;;;;;;44.97;15.55;;;;;;;-0.01;100.00;101798.78;5040278;28;20042;-70
2023/12/03 00:30:16;;;;;;;51.58;16.48;;;;;;;-0.01;100.00;101804.81;5027610;28;20126;-70
2023/12/03 00:32:43;;;;;;;65.28;30.33;;;;;;;0.01;100.00;101802.25;5028447;28;20571;-71
2023/12/03 00:35:11;;;;;;;61.90;29.60;;;;;;;0.03;100.00;101794.56;5029811;28;20701;-71
2023/12/03 00:37:38;;;;;;;69.55;30.27;;;;;;;0.04;100.00;101792.00;5044015;28;20117;-70
2023/12/03 00:40:06;;;;;;;47.75;16.70;;;;;;;0.06;100.00;101798.09;5029135;28;20045;-69
2023/12/03 00:42:33;;;;;;;42.63;16.08;;;;;;;0.06;100.00;101804.97;5024642;28;20099;-70
2023/12/03 00:45:00;;;;;;;63.47;28.70;;;;;;;0.08;100.00;101800.72;5029504;28;20073;-70
2023/12/03 00:47:27;;;;;;;46.83;18.30;;;;;;;0.12;100.00;101795.66;5031156;28;20516;-70
2023/12/03 00:49:55;;;;;;;62.45;29.20;;;;;;;0.13;100.00;101792.25;5011277;28;20448;-70
2023/12/03 00:52:22;;;;;;;65.35;29.63;;;;;;;0.17;100.00;101793.22;5028802;28;20132;-71
2023/12/03 00:54:49;;;;;;;67.32;31.48;;;;;;;0.19;100.00;101790.69;5011520;28;20054;-71
2023/12/03 00:57:16;;;;;;;47.30;18.95;;;;;;;0.19;100.00;101791.53;5021987;28;20081;-71
2023/12/03 00:59:43;;;;;;;69.32;30.95;;;;;;;0.22;100.00;101788.16;5019266;28;20674;-70
2023/12/03 01:02:10;;;;;;;62.80;29.30;;;;;;;0.24;100.00;101789.97;5023684;28;20042;-70
2023/12/03 01:04:37;;;;;;;62.88;29.65;;;;;;;0.26;100.00;101800.38;5033435;28;20040;-70
2023/12/03 01:07:04;;;;;;;66.60;30.48;;;;;;;0.27;100.00;101795.22;5016745;28;20627;-71
2023/12/03 01:09:31;;;;;;;59.58;30.00;;;;;;;0.29;100.00;101801.34;5046544;28;20042;-71
2023/12/03 01:12:00;;;;;;;62.63;30.00;;;;;;;0.31;100.00;101796.19;5031533;28;20115;-71
2023/12/03 01:14:27;;;;;;;62.25;30.92;;;;;;;0.32;100.00;101805.72;5050659;28;20043;-71
2023/12/03 01:16:55;;;;;;;60.40;29.08;;;;;;;0.33;100.00;101810.06;5023179;28;20117;-70
2023/12/03 01:19:22;;;;;;;44.10;18.17;;;;;;;0.34;100.00;101806.66;5011353;28;20054;-70
2023/12/03 01:21:49;;;;;;;60.75;31.83;;;;;;;0.35;100.00;101810.13;5023178;28;20509;-70
2023/12/03 01:24:16;;;;;;;53.13;27.23;;;;;;;0.36;100.00;101810.16;5025175;28;20045;-70
2023/12/03 01:26:43;;;;;;;53.78;28.45;;;;;;;0.39;100.00;101810.25;5009029;28;20088;-71
2023/12/03 01:29:12;;;;;;;45.13;16.50;;;;;;;0.41;100.00;101808.56;5028201;28;20037;-71
2023/12/03 01:31:39;;;;;;;48.80;25.02;;;;;;;0.42;100.00;101815.50;5029707;28;20457;-70
2023/12/03 01:34:06;;;;;;;51.05;27.33;;;;;;;0.45;100.00;101810.41;5010748;28;20046;-69
2023/12/03 01:36:33;;;;;;;39.92;17.05;;;;;;;0.44;100.00;101811.25;5021055;28;20107;-70
2023/12/03 01:39:00;;;;;;;52.13;27.92;;;;;;;0.47;100.00;101810.44;5027591;28;20581;-70
2023/12/03 01:41:28;;;;;;;50.10;26.25;;;;;;;0.50;100.00;101814.88;5027787;28;20049;-69
2023/12/03 01:43:57;;;;;;;38.95;16.25;;;;;;;0.51;100.00;101817.50;5028650;28;20045;-70
2023/12/03 01:46:24;;;;;;;49.03;26.92;;;;;;;0.53;100.00;101821.00;5029319;28;20128;-69
2023/12/03 01:48:51;;;;;;;52.38;26.67;;;;;;;0.57;100.00;101825.44;5025476;28;20525;-70
2023/12/03 01:51:19;;;;;;;48.60;26.60;;;;;;;0.60;100.00;101822.91;5025576;28;20041;-70
2023/12/03 01:53:49;;;;;;;53.83;28.30;;;;;;;0.65;100.00;101827.38;5027987;28;20049;-70
2023/12/03 01:56:16;;;;;;;53.45;27.60;;;;;;;0.68;100.00;101830.91;5014051;28;20076;-70
2023/12/03 01:58:44;;;;;;;54.55;28.25;;;;;;;0.69;100.00;101837.88;5008612;28;20049;-70
2023/12/03 02:01:11;;;;;;;47.10;25.73;;;;;;;0.72;100.00;101831.88;5021836;28;20045;-70
2023/12/03 02:03:38;;;;;;;44.97;24.67;;;;;;;0.75;100.00;101842.34;5026279;28;20658;-70
2023/12/03 02:06:09;;;;;;;50.92;26.80;;;;;;;0.78;100.00;101837.22;5019955;28;20111;-70
2023/12/03 02:08:37;;;;;;;47.08;25.45;;;;;;;0.80;100.00;101838.13;5010792;28;20092;-70
2023/12/03 02:11:06;;;;;;;38.85;15.43;;;;;;;0.82;100.00;101832.97;5039755;28;20042;-70
2023/12/03 02:13:37;;;;;;;43.67;23.80;;;;;;;0.86;100.00;101840.00;5024946;28;20053;-71
2023/12/03 02:16:05;;;;;;;48.08;27.70;;;;;;;0.87;100.00;101834.00;5013534;28;20038;-71
2023/12/03 02:18:33;;;;;;;43.90;25.02;;;;;;;0.89;100.00;101833.19;5026832;28;20100;-71
2023/12/03 02:21:01;;;;;;;41.17;24.92;;;;;;;0.93;100.00;101839.31;5028477;28;20087;-70
2023/12/03 02:23:30;;;;;;;41.13;23.02;;;;;;;0.95;100.00;101835.06;5028343;28;20045;-70
2023/12/03 02:25:58;;;;;;;41.85;24.98;;;;;;;0.97;100.00;101837.72;5022970;28;20053;-70
2023/12/03 02:28:25;;;;;;;37.03;21.83;;;;;;;0.99;100.00;101839.50;5008286;28;20124;-70
2023/12/03 02:30:52;;;;;;;39.58;24.27;;;;;;;1.01;100.00;101835.22;5026010;28;20041;-70
2023/12/03 02:33:19;;;;;;;38.92;23.42;;;;;;;1.03;100.00;101841.31;5027755;28;20585;-70
2023/12/03 02:35:47;;;;;;;42.92;24.90;;;;;;;1.04;100.00;101840.47;5025631;28;20049;-70
2023/12/03 02:38:15;;;;;;;30.67;15.32;;;;;;;1.06;100.00;101840.53;5028787;28;20049;-69
2023/12/03 02:40:42;;;;;;;38.00;23.30;;;;;;;1.07;100.00;101839.66;5017164;28;20132;-70
2023/12/03 02:43:09;;;;;;;38.75;26.27;;;;;;;1.08;100.00;101846.63;5023242;28;20111;-70
2023/12/03 02:45:36;;;;;;;43.22;27.40;;;;;;;1.12;100.00;101848.47;5027806;28;20106;-69
2023/12/03 02:48:04;;;;;;;38.20;23.77;;;;;;;1.13;100.00;101846.72;5028085;28;20073;-69
2023/12/03 02:50:31;;;;;;;38.58;25.52;;;;;;;1.13;100.00;101847.63;5026665;28;20041;-70
2023/12/03 02:52:58;;;;;;;37.88;23.58;;;;;;;1.12;100.00;101843.28;5027642;28;20041;-70
2023/12/03 02:55:25;;;;;;;35.92;24.40;;;;;;;1.13;100.00;101836.34;5040655;28;20049;-70
2023/12/03 02:57:52;;;;;;;40.92;26.38;;;;;;;1.12;100.00;101840.69;5011145;28;20059;-70
2023/12/03 03:00:19;;;;;;;38.97;25.23;;;;;;;1.13;100.00;101839.84;5010710;28;20585;-70
2023/12/03 03:02:47;;;;;;;38.33;24.83;;;;;;;1.15;100.00;101842.47;5025930;28;20088;-70
2023/12/03 03:05:14;;;;;;;33.58;17.27;;;;;;;1.14;100.00;101845.91;5039952;28;20083;-70
2023/12/03 03:07:41;;;;;;;32.20;16.20;;;;;;;1.15;100.00;101848.56;5009450;28;20128;-71
2023/12/03 03:10:08;;;;;;;40.13;26.05;;;;;;;1.15;100.00;101853.75;5029038;28;20112;-70
2023/12/03 03:12:35;;;;;;;37.88;25.08;;;;;;;1.17;100.00;101851.19;5025491;28;20049;-70
2023/12/03 03:15:03;;;;;;;36.97;24.35;;;;;;;1.17;100.00;101852.03;5037356;28;20641;-70
2023/12/03 03:17:30;;;;;;;37.65;23.23;;;;;;;1.16;100.00;101850.31;5027622;28;20037;-70
2023/12/03 03:19:57;;;;;;;50.60;30.02;;;;;;;1.15;100.00;101851.16;5048127;28;20417;-70
2023/12/03 03:22:24;;;;;;;47.63;29.02;;;;;;;1.12;100.00;101850.19;5047476;28;20161;-70
2023/12/03 03:24:52;;;;;;;36.50;18.90;;;;;;;1.09;100.00;101853.56;5004788;28;20467;-70
2023/12/03 03:27:19;;;;;;;38.92;25.55;;;;;;;1.07;100.00;101848.34;5008466;28;20049;-70
2023/12/03 03:29:46;;;;;;;40.05;26.10;;;;;;;1.06;100.00;101854.38;5040193;28;20050;-70
2023/12/03 03:32:13;;;;;;;41.00;25.10;;;;;;;1.06;100.00;101859.59;5010716;28;20145;-70
2023/12/03 03:34:41;;;;;;;43.95;25.73;;;;;;;1.03;100.00;101853.44;5019692;28;20126;-70
2023/12/03 03:37:08;;;;;;;42.25;25.35;;;;;;;1.03;100.00;101856.03;5028637;28;20048;-70
2023/12/03 03:39:35;;;;;;;45.50;27.60;;;;;;;1.01;100.00;101863.78;5023364;28;20046;-70
2023/12/03 03:42:03;;;;;;;40.78;23.85;;;;;;;0.98;100.00;101868.91;5022008;28;20049;-71
2023/12/03 03:44:30;;;;;;;38.72;22.48;;;;;;;0.94;100.00;101867.06;5042334;28;20783;-70
2023/12/03 03:46:58;;;;;;;44.60;26.02;;;;;;;0.89;100.00;101872.13;5026313;28;20045;-71
2023/12/03 03:49:25;;;;;;;47.67;27.17;;;;;;;0.85;100.00;101859.91;5030298;28;20080;-70
2023/12/03 03:51:52;;;;;;;38.97;23.95;;;;;;;0.82;100.00;101856.34;5030093;28;20469;-71
2023/12/03 03:54:19;;;;;;;41.75;26.13;;;;;;;0.77;100.00;101862.31;5046783;28;20041;-70
2023/12/03 03:56:49;;;;;;;38.58;17.65;;;;;;;0.74;100.00;101862.22;5028015;28;20046;-71
2023/12/03 03:59:16;;;;;;;46.10;27.98;;;;;;;0.68;100.00;101859.47;5010914;28;20065;-71
2023/12/03 04:01:44;;;;;;;43.78;26.48;;;;;;;0.67;100.00;101869.78;5029917;28;20515;-70
2023/12/03 04:04:12;;;;;;;43.60;27.10;;;;;;;0.64;100.00;101864.53;5030729;28;20497;-70
2023/12/03 04:06:44;;;;;;;46.17;28.05;;;;;;;0.59;100.00;101860.09;5031483;28;20042;-70
2023/12/03 04:09:13;;;;;;;48.65;26.25;;;;;;;0.56;100.00;101869.50;5029123;28;20550;-70
2023/12/03 04:11:41;;;;;;;43.28;27.25;;;;;;;0.53;100.00;101867.72;5028575;28;20052;-70
2023/12/03 04:14:15;;;;;;;45.55;27.63;;;;;;;0.49;100.00;101865.84;5031233;28;20504;-70
2023/12/03 04:16:44;;;;;;;47.55;28.33;;;;;;;0.45;100.00;101864.03;5029689;28;20157;-71
2023/12/03 04:19:11;;;;;;;44.17;27.70;;;;;;;0.38;100.00;101865.56;5046277;28;20124;-71
2023/12/03 04:21:39;;;;;;;47.90;27.92;;;;;;;0.33;100.00;101866.28;5032048;28;20222;-70
2023/12/03 04:24:07;;;;;;;40.88;17.75;;;;;;;0.24;100.00;101877.25;5015950;28;20057;-71
2023/12/03 04:26:34;;;;;;;47.35;28.40;;;;;;;0.16;100.00;101877.03;5028744;28;20099;-70
2023/12/03 04:29:01;;;;;;;36.72;17.15;;;;;;;0.13;100.00;101877.81;5028586;28;20672;-71
2023/12/03 04:31:28;;;;;;;38.72;16.58;;;;;;;0.11;100.00;101876.03;5045566;28;20041;-71
2023/12/03 04:33:56;;;;;;;39.72;15.88;;;;;;;0.15;100.00;101877.91;5030044;28;20065;-71
2023/12/03 04:36:24;;;;;;;49.35;28.45;;;;;;;0.19;100.00;101874.53;5029908;28;20124;-71
2023/12/03 04:38:55;;;;;;;40.10;17.20;;;;;;;0.27;100.00;101877.34;5026308;28;20041;-71
2023/12/03 04:41:22;;;;;;;48.35;28.30;;;;;;;0.33;100.00;101876.66;5012895;28;20135;-70
2023/12/03 04:43:49;;;;;;;31.80;14.45;;;;;;;0.39;100.00;101882.91;5040297;28;20054;-70
2023/12/03 04:46:16;;;;;;;32.85;14.18;;;;;;;0.42;100.00;101877.78;5028959;28;20046;-70
2023/12/03 04:48:44;;;;;;;43.38;26.02;;;;;;;0.47;100.00;101875.31;5028170;28;20030;-71
2023/12/03 04:51:13;;;;;;;33.30;15.77;;;;;;;0.51;100.00;101877.16;5029565;28;20476;-71
2023/12/03 04:53:40;;;;;;;46.00;28.02;;;;;;;0.53;100.00;101875.50;5031045;28;20049;-70
2023/12/03 04:56:08;;;;;;;46.25;26.55;;;;;;;0.55;100.00;101875.53;5025318;28;20137;-71
2023/12/03 04:58:35;;;;;;;45.00;26.00;;;;;;;0.57;100.00;101882.53;5027211;28;20088;-70
2023/12/03 05:01:02;;;;;;;41.70;24.42;;;;;;;0.60;100.00;101876.56;5030196;28;20099;-70
2023/12/03 05:03:30;;;;;;;41.50;25.15;;;;;;;0.63;100.00;101883.53;5026840;28;20054;-70
2023/12/03 05:05:57;;;;;;;42.47;24.73;;;;;;;0.62;100.00;101887.84;5039863;28;20108;-70
2023/12/03 05:08:24;;;;;;;38.63;23.63;;;;;;;0.62;100.00;101887.84;5029155;28;20355;-70
2023/12/03 05:10:51;;;;;;;42.47;26.08;;;;;;;0.65;100.00;101889.66;5030000;28;20164;-70
2023/12/03 05:13:18;;;;;;;42.08;24.85;;;;;;;0.66;100.00;101892.28;5030343;28;20069;-70
2023/12/03 05:15:45;;;;;;;42.75;24.85;;;;;;;0.66;100.00;101896.63;5029253;28;20580;-70
2023/12/03 05:18:13;;;;;;;43.15;25.88;;;;;;;0.67;100.00;101899.25;5018159;28;20096;-71
2023/12/03 05:20:41;;;;;;;42.53;26.48;;;;;;;0.68;100.00;101892.31;5030001;28;20575;-70
2023/12/03 05:23:08;;;;;;;38.58;17.30;;;;;;;0.66;100.00;101892.28;5030303;28;20041;-70
2023/12/03 05:25:35;;;;;;;42.55;24.60;;;;;;;0.64;100.00;101887.91;5029228;28;20053;-70
2023/12/03 05:28:03;;;;;;;37.83;16.52;;;;;;;0.62;100.00;101893.03;5029851;28;20077;-70
2023/12/03 05:30:30;;;;;;;41.28;24.63;;;;;;;0.61;100.00;101893.88;5025958;28;20575;-70
2023/12/03 05:32:58;;;;;;;34.65;15.73;;;;;;;0.60;100.00;101894.72;5024338;28;20053;-70
2023/12/03 05:35:25;;;;;;;39.53;23.25;;;;;;;0.58;100.00;101902.44;5043315;28;20544;-70
2023/12/03 05:37:52;;;;;;;39.78;23.80;;;;;;;0.57;100.00;101903.28;5030406;28;20041;-70
2023/12/03 05:40:19;;;;;;;42.55;25.45;;;;;;;0.56;100.00;101903.25;5046411;28;20140;-70
2023/12/03 05:42:48;;;;;;;40.80;22.65;;;;;;;0.52;100.00;101909.19;5044162;28;20120;-70
2023/12/03 05:45:15;;;;;;;39.72;23.13;;;;;;;0.43;100.00;101909.81;5027083;28;20112;-70
2023/12/03 05:47:42;;;;;;;45.92;24.90;;;;;;;0.33;100.00;101908.66;5026255;28;20100;-70
2023/12/03 05:50:09;;;;;;;42.92;24.08;;;;;;;0.22;100.00;101907.44;5010080;28;20038;-70
2023/12/03 05:52:37;;;;;;;47.90;26.60;;;;;;;0.09;100.00;101914.91;5010518;28;20640;-70
2023/12/03 05:55:04;;;;;;;42.58;24.50;;;;;;;-0.06;100.00;101917.00;5019288;28;20052;-70
2023/12/03 05:57:34;;;;;;;43.80;24.67;;;;;;;-0.17;100.00;101921.88;5026904;28;20048;-64
2023/12/03 06:00:06;;;;;;;45.78;26.65;;;;;;;-0.27;100.00;101920.69;5026990;28;20049;-71
2023/12/03 06:02:36;;;;;;;41.63;23.55;;;;;;;-0.39;100.00;101923.78;5042037;28;20045;-70
2023/12/03 06:05:04;;;;;;;49.13;26.00;;;;;;;-0.48;100.00;101919.16;5027632;28;20156;-69
2023/12/03 06:07:31;;;;;;;48.13;26.25;;;;;;;-0.57;100.00;101929.22;5025683;28;20428;-70
2023/12/03 06:09:58;;;;;;;44.15;24.58;;;;;;;-0.67;100.00;101924.56;5026560;28;20588;-70
2023/12/03 06:12:26;;;;;;;44.50;23.85;;;;;;;-0.76;100.00;101932.03;5028766;28;20041;-70
2023/12/03 06:14:53;;;;;;;33.35;15.65;;;;;;;-0.84;100.00;101927.50;5026138;28;20091;-70
2023/12/03 06:17:23;;;;;;;35.28;14.35;;;;;;;-0.91;100.00;101934.97;5026581;28;20120;-71
2023/12/03 06:19:53;;;;;;;46.65;24.38;;;;;;;-0.96;100.00;101933.09;5028614;28;20539;-69
2023/12/03 06:22:20;;;;;;;52.67;27.52;;;;;;;-1.00;100.00;101938.13;5009286;28;20129;-69
2023/12/03 06:24:47;;;;;;;50.65;24.90;;;;;;;-1.04;100.00;101936.28;5041247;28;20592;-69
2023/12/03 06:27:14;;;;;;;31.48;13.15;;;;;;;-1.11;100.00;101940.34;5029837;28;20041;-70
2023/12/03 06:29:41;;;;;;;38.72;13.25;;;;;;;-1.18;100.00;101933.19;5027202;28;20061;-70
2023/12/03 06:32:10;;;;;;;46.63;25.23;;;;;;;-1.22;100.00;101939.06;5026841;28;20443;-70
2023/12/03 06:34:37;;;;;;;36.20;14.85;;;;;;;-1.22;100.00;101933.91;5042299;28;20074;-69
2023/12/03 06:37:06;;;;;;;36.55;13.52;;;;;;;-1.29;100.00;101938.88;5028013;28;20658;-69
2023/12/03 06:39:33;;;;;;;37.55;14.63;;;;;;;-1.34;100.00;101944.69;5027436;28;20061;-69
2023/12/03 06:42:00;;;;;;;33.03;13.38;;;;;;;-1.42;100.00;101944.41;5028720;28;20041;-68
2023/12/03 06:44:27;;;;;;;49.35;26.27;;;;;;;-1.46;100.00;101945.13;5027093;28;20068;-70
2023/12/03 06:47:10;;;;;;;38.58;14.55;;;;;;;-1.48;100.00;101939.03;5041494;28;20505;-69
2023/12/03 06:49:37;;;;;;;37.88;13.07;;;;;;;-1.52;100.00;101935.41;5026803;28;20120;-70
2023/12/03 06:52:04;;;;;;;38.83;14.73;;;;;;;-1.54;100.00;101938.78;5028532;28;20044;-69
2023/12/03 06:54:37;;;;;;;32.17;13.18;;;;;;;-1.58;100.00;101942.97;5024605;28;20045;-69
2023/12/03 06:57:04;;;;;;;44.33;24.35;;;;;;;-1.58;100.00;101935.19;5024717;28;20041;-63
2023/12/03 06:59:32;;;;;;;30.48;13.43;;;;;;;-1.61;100.00;101935.97;5023228;28;20103;-70
2023/12/03 07:02:02;;;;;;;32.78;13.25;;;;;;;-1.65;100.00;101938.38;5040122;28;20041;-70
2023/12/03 07:04:29;;;;;;;36.25;13.73;;;;;;;-1.68;100.00;101935.69;5024520;28;20159;-69
2023/12/03 07:06:56;;;;;;;36.88;13.88;;;;;;;-1.70;100.00;101948.56;5026872;28;20071;-69
2023/12/03 07:09:26;;;;;;;52.47;26.52;;;;;;;-1.70;100.00;101950.25;5027028;28;20119;-69
2023/12/03 07:12:07;;;;;;;38.47;13.98;;;;;;;-1.72;100.00;101955.38;5027533;28;20037;-69
2023/12/03 07:14:34;;;;;;;57.20;29.30;;;;;;;-1.72;100.00;101957.97;5025905;28;20523;-70
2023/12/03 07:17:02;;;;;;;52.60;26.42;;;;;;;-1.70;100.00;101952.84;5024912;28;20102;-69
2023/12/03 07:19:29;;;;;;;36.05;13.10;;;;;;;-1.70;100.00;101952.84;5025184;28;20462;-70
2023/12/03 07:21:56;;;;;;;38.33;12.55;;;;;;;-1.70;100.00;101961.50;5027817;28;20038;-70
2023/12/03 07:24:27;;;;;;;47.42;23.98;;;;;;;-1.70;100.00;101952.84;5025395;28;20669;-70
2023/12/03 07:26:54;;;;;;;40.10;14.25;;;;;;;-1.70;100.00;101955.41;5027678;28;20045;-69
2023/12/03 07:29:21;;;;;;;35.22;13.90;;;;;;;-1.73;100.00;101964.81;5027254;28;20121;-70
2023/12/03 07:31:48;;;;;;;35.90;12.88;;;;;;;-1.76;100.00;101962.13;5025514;28;20378;-71
2023/12/03 07:34:15;;;;;;;32.15;12.25;;;;;;;-1.77;100.00;101960.38;5039914;28;20049;-71
2023/12/03 07:36:43;;;;;;;33.47;13.57;;;;;;;-1.72;100.00;101966.59;5028097;28;20057;-70
2023/12/03 07:39:10;;;;;;;58.22;29.45;;;;;;;-1.66;100.00;101968.53;5021861;28;20042;-70
2023/12/03 07:41:39;;;;;;;34.83;13.63;;;;;;;-1.60;100.00;101975.63;5019786;28;20057;-71
2023/12/03 07:44:06;;;;;;;30.92;11.23;;;;;;;-1.61;100.00;101974.78;5017145;28;20045;-72
2023/12/03 07:46:33;;;;;;;39.33;14.52;;;;;;;-1.61;100.00;101987.69;5019587;28;20042;-71
2023/12/03 07:49:00;;;;;;;53.92;28.65;;;;;;;-1.61;100.00;101977.34;5033312;28;20061;-69
2023/12/03 07:51:29;;;;;;;37.47;14.80;;;;;;;-1.63;100.00;101979.00;5019334;28;20066;-69
2023/12/03 07:53:56;;;;;;;43.22;15.07;;;;;;;-1.64;100.00;101981.53;5023105;28;20073;-69
2023/12/03 07:56:23;;;;;;;59.42;30.83;;;;;;;-1.62;100.00;101985.94;5039132;28;20047;-70
2023/12/03 07:58:50;;;;;;;52.60;29.55;;;;;;;-1.59;100.00;101991.25;5050859;28;20041;-70
2023/12/03 08:01:17;;;;;;;44.40;18.70;;;;;;;-1.56;100.00;101986.16;5024521;28;20272;-70
2023/12/03 08:03:44;;;;;;;34.10;13.52;;;;;;;-1.41;100.00;101995.34;5034481;28;20045;-70
2023/12/03 08:06:11;;;;;;;54.45;29.45;;;;;;;-1.18;100.00;101995.31;5037188;28;20049;-70
2023/12/03 08:08:38;;;;;;;48.05;27.27;;;;;;;-1.04;100.00;101994.09;5030631;28;20797;-70
2023/12/03 08:11:06;;;;;;;37.90;16.48;;;;;;;-0.85;100.00;101995.63;5030227;28;20072;-70
2023/12/03 08:13:33;;;;;;;49.30;28.38;;;;;;;-0.65;100.00;101991.13;5044060;28;20045;-70
2023/12/03 08:16:03;;;;;;;38.08;16.77;;;;;;;-0.50;100.00;101988.19;5028245;28;20057;-70
2023/12/03 08:18:31;;;;;;;31.83;13.82;;;;;;;-0.36;100.00;101985.19;5027877;28;20034;-70
2023/12/03 08:20:59;;;;;;;31.90;10.77;;;;;;;-0.14;100.00;101983.28;5027661;28;20056;-70
2023/12/03 08:23:26;;;;;;;34.40;12.80;;;;;;;0.02;100.00;101982.94;5021512;28;20052;-70
2023/12/03 08:25:54;;;;;;;41.80;24.05;;;;;;;0.09;100.00;101979.72;5022767;28;20120;-70
2023/12/03 08:28:21;;;;;;;32.50;13.35;;;;;;;0.11;100.00;101970.25;5042250;28;20044;-70
2023/12/03 08:30:48;;;;;;;41.45;23.73;;;;;;;0.17;100.00;101977.34;5026325;28;20046;-70
2023/12/03 08:33:15;;;;;;;36.80;22.45;;;;;;;0.22;100.00;101977.50;5023627;28;20076;-70
2023/12/03 08:35:43;;;;;;;37.28;22.20;;;;;;;0.25;100.00;101972.41;5024235;28;20108;-69
2023/12/03 08:38:10;;;;;;;31.48;12.02;;;;;;;0.24;100.00;101971.53;5043686;28;20045;-70
2023/12/03 08:40:38;;;;;;;30.73;11.52;;;;;;;0.22;100.00;101977.50;5025357;28;20042;-69
2023/12/03 08:43:05;;;;;;;32.40;14.15;;;;;;;0.21;100.00;101975.72;5028927;28;20052;-71
2023/12/03 08:45:33;;;;;;;35.72;21.10;;;;;;;0.16;100.00;101988.56;5012658;28;20159;-70
2023/12/03 08:48:00;;;;;;;39.58;22.85;;;;;;;0.09;100.00;101986.59;5028964;28;20041;-71
2023/12/03 08:50:29;;;;;;;37.80;20.35;;;;;;;0.04;100.00;101983.00;5023580;28;20597;-70
2023/12/03 08:52:57;;;;;;;36.67;21.23;;;;;;;0.02;100.00;101987.25;5030413;28;20037;-70
2023/12/03 08:55:24;;;;;;;36.30;20.27;;;;;;;-0.02;100.00;101994.06;5046063;28;20053;-70
2023/12/03 08:57:52;;;;;;;38.05;22.00;;;;;;;-0.05;100.00;101994.81;5025487;28;20034;-70
2023/12/03 09:00:20;;;;;;;28.70;13.32;;;;;;;-0.08;100.00;101993.84;5028676;28;20517;-70
2023/12/03 09:02:47;;;;;;;29.23;12.27;;;;;;;-0.09;100.00;101992.09;5028512;28;20049;-70
2023/12/03 09:05:14;;;;;;;38.95;20.33;;;;;;;-0.10;100.00;101990.34;5030548;28;20122;-70
2023/12/03 09:07:42;;;;;;;32.65;13.65;;;;;;;-0.08;100.00;101997.34;5030162;28;20115;-70
2023/12/03 09:10:09;;;;;;;29.92;11.57;;;;;;;-0.10;100.00;102003.31;5028228;28;20068;-70
2023/12/03 09:12:39;;;;;;;34.42;19.27;;;;;;;-0.10;100.00;101998.13;5044708;28;20056;-70
2023/12/03 09:15:06;;;;;;;25.88;10.88;;;;;;;-0.09;100.00;102011.13;5029275;28;20037;-70
2023/12/03 09:17:33;;;;;;;34.60;19.90;;;;;;;-0.10;100.00;102005.91;5028450;28;20038;-71
2023/12/03 09:20:01;;;;;;;35.22;19.88;;;;;;;-0.09;100.00;102003.34;5028994;28;20449;-70
2023/12/03 09:22:28;;;;;;;34.63;19.40;;;;;;;-0.10;100.00;102006.78;5026776;28;20041;-70
2023/12/03 09:24:55;;;;;;;31.80;18.90;;;;;;;-0.08;100.00;102004.22;5025491;28;20045;-70
2023/12/03 09:27:22;;;;;;;29.25;12.13;;;;;;;-0.05;100.00;102002.59;5037011;28;20053;-70
2023/12/03 09:29:49;;;;;;;32.67;17.98;;;;;;;0.02;100.00;102006.28;5024608;28;20049;-71
2023/12/03 09:32:17;;;;;;;46.33;19.40;;;;;;;0.10;100.00;102007.38;5025654;28;20121;-70
2023/12/03 09:34:44;;;;;;;170.90;58.50;;;;;;;0.18;100.00;102006.78;5028109;28;20164;-71
2023/12/03 09:37:11;;;;;;;37.20;23.17;;;;;;;0.28;100.00;102003.63;5028959;28;20044;-70
2023/12/03 09:39:39;;;;;;;36.05;21.23;;;;;;;0.40;100.00;102006.63;5010448;28;20038;-70
2023/12/03 09:42:09;;;;;;;35.35;24.55;;;;;;;0.51;100.00;102004.31;5028880;28;20047;-71
2023/12/03 09:44:58;;;;;;;26.40;12.20;;;;;;;0.59;100.00;102007.16;5022413;28;20049;-70
2023/12/03 09:47:27;;;;;;;37.13;23.50;;;;;;;0.72;100.00;102006.66;5057331;28;20052;-70
2023/12/03 09:49:56;;;;;;;35.22;24.75;;;;;;;0.84;100.00;102011.34;5036583;28;20034;-70
2023/12/03 09:52:28;;;;;;;29.30;20.38;;;;;;;0.98;100.00;102009.13;5027440;28;20130;-70
2023/12/03 09:54:58;;;;;;;31.73;16.42;;;;;;;1.18;100.00;102008.81;5025710;28;20044;-70
2023/12/03 09:57:30;;;;;;;64.22;51.08;;;;;;;1.32;100.00;102012.66;5012733;28;20137;-70
2023/12/03 10:00:05;;;;;;;32.03;19.88;;;;;;;1.41;100.00;102014.59;5066606;28;20037;-70
2023/12/03 10:02:38;;;;;;;32.42;21.17;;;;;;;1.46;100.00;102012.13;5025228;28;20041;-70
2023/12/03 10:05:08;;;;;;;33.67;21.73;;;;;;;1.49;100.00;102015.69;5027413;28;20475;-70
2023/12/03 10:07:38;;;;;;;110.55;47.58;;;;;;;1.52;100.00;102012.31;5039809;28;20629;-70
2023/12/03 10:10:10;;;;;;;198.82;102.55;;;;;;;1.54;99.79;102014.09;5007482;28;20299;-70
2023/12/03 10:12:42;;;;;;;309.95;123.97;;;;;;;1.60;99.84;102012.47;5018144;28;20049;-70
2023/12/03 10:15:13;;;;;;;92.00;55.53;;;;;;;1.63;99.18;102010.84;5040486;28;20048;-70
2023/12/03 10:17:41;;;;;;;70.35;41.42;;;;;;;1.65;98.58;102003.09;5048335;28;20131;-70
2023/12/03 10:20:27;;;;;;;78.20;42.40;;;;;;;1.70;98.43;102006.69;5029501;28;20041;-70
2023/12/03 10:23:02;;;;;;;146.50;96.38;;;;;;;1.73;98.20;101996.38;5008067;28;20060;-70
2023/12/03 10:25:35;;;;;;;189.05;143.55;;;;;;;1.75;97.64;101986.88;5017977;28;20448;-70
2023/12/03 10:28:08;;;;;;;59.22;39.45;;;;;;;1.78;97.46;101988.69;5028462;28;20479;-70
2023/12/03 10:30:39;;;;;;;41.67;27.23;;;;;;;1.82;97.13;101996.59;5040302;28;20513;-70
2023/12/03 10:33:06;;;;;;;53.17;34.17;;;;;;;1.85;96.57;101987.97;5063601;28;20057;-70
2023/12/03 10:35:35;;;;;;;135.25;70.82;;;;;;;1.91;96.14;101987.25;5047424;28;20496;-71
2023/12/03 10:38:07;;;;;;;79.85;48.83;;;;;;;1.95;95.50;101989.94;5029062;28;20103;-70
2023/12/03 10:40:35;;;;;;;73.38;49.00;;;;;;;2.00;95.42;101980.56;5028771;28;20124;-70
2023/12/03 10:43:02;;;;;;;76.57;46.22;;;;;;;2.08;95.19;101977.25;5048330;28;20052;-70
2023/12/03 10:45:30;;;;;;;44.83;26.58;;;;;;;2.13;95.00;101971.31;5027866;28;20129;-70
2023/12/03 10:48:00;;;;;;;59.80;38.95;;;;;;;2.16;94.96;101967.88;5027907;28;20501;-70
2023/12/03 10:50:30;;;;;;;57.15;35.10;;;;;;;2.20;94.48;101982.72;5027192;28;20122;-70
2023/12/03 10:53:01;;;;;;;63.72;49.58;;;;;;;2.21;93.74;101971.47;5029089;28;20497;-70
2023/12/03 10:55:28;;;;;;;35.97;26.13;;;;;;;2.21;93.33;101970.59;5028892;28;20050;-70
2023/12/03 10:58:02;;;;;;;39.95;33.50;;;;;;;2.19;92.63;101969.69;5028989;28;20072;-70
2023/12/03 11:00:47;;;;;;;29.50;22.15;;;;;;;2.16;92.75;101966.19;5029722;28;20041;-70
2023/12/03 11:03:23;;;;;;;32.22;20.15;;;;;;;2.14;92.49;101964.34;5028726;28;20046;-70
2023/12/03 11:05:52;;;;;;;27.25;19.38;;;;;;;2.13;92.26;101968.69;5040266;28;20056;-70
2023/12/03 11:08:25;;;;;;;34.17;22.15;;;;;;;2.15;91.34;101966.13;5046802;28;20056;-70
2023/12/03 11:10:55;;;;;;;36.28;26.60;;;;;;;2.17;91.80;101967.94;5051540;28;20049;-71